createdAt,value
2022-09-26T00:00:34.741Z,23.42
2022-09-26T00:03:02.660Z,17.63
2022-09-26T00:05:33.739Z,26.00
2022-09-26T00:08:01.609Z,17.35
2022-09-26T00:10:30.566Z,33.05
2022-09-26T00:12:58.143Z,27.85
2022-09-26T00:15:26.084Z,15.95
2022-09-26T00:17:53.756Z,21.05
2022-09-26T00:20:21.316Z,15.73
2022-09-26T00:22:48.863Z,42.10
2022-09-26T00:25:16.639Z,27.33
2022-09-26T00:27:45.455Z,17.42
2022-09-26T00:30:13.152Z,15.25
2022-09-26T00:32:40.624Z,14.02
2022-09-26T00:35:09.016Z,14.00
2022-09-26T00:37:36.502Z,12.80
2022-09-26T00:40:04.370Z,14.55
2022-09-26T00:42:31.948Z,14.60
2022-09-26T00:45:00.804Z,15.20
2022-09-26T00:47:38.069Z,15.40
2022-09-26T00:50:10.649Z,16.33
2022-09-26T00:52:42.403Z,19.48
2022-09-26T00:55:14.079Z,17.92
2022-09-26T00:57:46.340Z,29.52
2022-09-26T01:00:16.415Z,43.10
2022-09-26T01:02:45.533Z,48.65
2022-09-26T01:05:16.922Z,26.17
2022-09-26T01:07:45.120Z,30.77
2022-09-26T01:10:13.135Z,44.47
2022-09-26T01:12:40.699Z,31.98
2022-09-26T01:15:09.288Z,24.50
2022-09-26T01:17:39.733Z,17.73
2022-09-26T01:20:25.435Z,18.73
2022-09-26T01:23:26.611Z,16.13
2022-09-26T01:26:24.755Z,21.20
2022-09-26T01:29:28.810Z,19.83
2022-09-26T01:32:22.768Z,23.35
2022-09-26T01:34:59.363Z,26.92
2022-09-26T01:37:34.045Z,32.95
2022-09-26T01:40:11.749Z,19.23
2022-09-26T01:42:48.343Z,17.05
2022-09-26T01:45:19.925Z,28.38
2022-09-26T01:47:56.180Z,35.47
2022-09-26T01:50:34.773Z,44.75
2022-09-26T01:53:07.304Z,26.73
2022-09-26T01:55:40.805Z,24.90
2022-09-26T01:58:13.094Z,34.30
2022-09-26T02:00:43.284Z,40.33
2022-09-26T02:03:16.573Z,29.85
2022-09-26T02:05:47.536Z,43.03
2022-09-26T02:08:18.634Z,41.67
2022-09-26T02:10:49.430Z,48.28
2022-09-26T02:13:21.159Z,42.15
2022-09-26T02:15:53.337Z,40.72
2022-09-26T02:18:28.995Z,38.13
2022-09-26T02:21:02.135Z,49.53
2022-09-26T02:23:29.740Z,38.92
2022-09-26T02:25:57.273Z,28.27
2022-09-26T02:28:24.820Z,45.08
2022-09-26T02:30:55.350Z,46.45
2022-09-26T02:33:24.812Z,45.83
2022-09-26T02:35:54.434Z,35.83
2022-09-26T02:38:22.247Z,25.50
2022-09-26T02:40:56.860Z,40.35
2022-09-26T02:43:37.048Z,34.05
2022-09-26T02:46:18.980Z,47.83
2022-09-26T02:49:04.548Z,43.85
2022-09-26T02:51:49.747Z,35.63
2022-09-26T02:54:24.716Z,42.17
2022-09-26T02:57:11.515Z,37.72
2022-09-26T02:59:49.811Z,33.08
2022-09-26T03:02:20.582Z,29.08
2022-09-26T03:04:53.600Z,40.55
2022-09-26T03:07:25.148Z,35.38
2022-09-26T03:09:54.129Z,38.08
2022-09-26T03:12:23.909Z,39.55
2022-09-26T03:14:55.462Z,15.70
2022-09-26T03:17:26.896Z,39.25
2022-09-26T03:20:00.701Z,22.63
2022-09-26T03:22:28.373Z,37.17
2022-09-26T03:24:59.238Z,42.42
2022-09-26T03:27:27.691Z,43.97
2022-09-26T03:29:55.196Z,42.67
2022-09-26T03:32:22.727Z,36.70
2022-09-26T03:34:51.154Z,42.90
2022-09-26T03:37:20.008Z,49.80
2022-09-26T03:39:47.478Z,28.38
2022-09-26T03:42:16.662Z,39.72
2022-09-26T03:44:44.127Z,38.30
2022-09-26T03:47:11.606Z,36.58
2022-09-26T03:49:39.309Z,38.50
2022-09-26T03:52:07.304Z,36.97
2022-09-26T03:54:36.089Z,22.02
2022-09-26T03:57:03.771Z,43.05
2022-09-26T03:59:31.218Z,38.33
2022-09-26T04:01:58.880Z,50.00
2022-09-26T04:04:26.714Z,34.60
2022-09-26T04:06:54.172Z,38.90
2022-09-26T04:09:21.987Z,36.15
2022-09-26T04:11:51.096Z,45.47
2022-09-26T04:14:18.568Z,46.65
2022-09-26T04:16:46.173Z,27.77
2022-09-26T04:19:14.456Z,22.83
2022-09-26T04:21:42.733Z,42.00
2022-09-26T04:24:14.512Z,54.30
2022-09-26T04:26:42.815Z,30.80
2022-09-26T04:29:12.019Z,32.88
2022-09-26T04:31:40.300Z,19.70
2022-09-26T04:34:07.933Z,40.38
2022-09-26T04:36:35.460Z,34.45
2022-09-26T04:39:02.978Z,48.03
2022-09-26T04:41:31.387Z,45.00
2022-09-26T04:44:00.208Z,29.85
2022-09-26T04:46:31.381Z,27.38
2022-09-26T04:49:00.753Z,19.77
2022-09-26T04:51:29.582Z,42.67
2022-09-26T04:53:57.229Z,27.30
2022-09-26T04:56:26.508Z,47.85
2022-09-26T04:58:56.152Z,48.47
2022-09-26T05:01:24.019Z,20.35
2022-09-26T05:03:53.389Z,30.33
2022-09-26T05:06:20.856Z,54.40
2022-09-26T05:08:48.441Z,40.10
2022-09-26T05:11:17.180Z,17.60
2022-09-26T05:13:45.151Z,35.95
2022-09-26T05:16:14.425Z,19.92
2022-09-26T05:18:42.038Z,18.58
2022-09-26T05:21:11.068Z,40.63
2022-09-26T05:23:55.564Z,43.92
2022-09-26T05:26:27.299Z,37.47
2022-09-26T05:28:56.632Z,43.80
2022-09-26T05:31:26.200Z,45.08
2022-09-26T05:33:53.765Z,44.78
2022-09-26T05:36:22.581Z,36.58
2022-09-26T05:38:50.103Z,42.70
2022-09-26T05:41:17.229Z,42.70
2022-09-26T05:43:44.710Z,42.28
2022-09-26T05:46:12.828Z,36.00
2022-09-26T05:48:41.339Z,42.38
2022-09-26T05:51:11.732Z,43.42
2022-09-26T05:53:41.601Z,43.25
2022-09-26T05:56:12.733Z,26.10
2022-09-26T05:58:42.624Z,19.23
2022-09-26T06:01:12.711Z,17.60
2022-09-26T06:03:44.093Z,20.48
2022-09-26T06:06:13.079Z,30.15
2022-09-26T06:08:42.828Z,36.67
2022-09-26T06:11:12.857Z,41.53
2022-09-26T06:13:43.992Z,19.98
2022-09-26T06:16:14.441Z,50.47
2022-09-26T06:18:42.477Z,42.85
2022-09-26T06:21:12.714Z,45.53
2022-09-26T06:23:42.057Z,39.92
2022-09-26T06:26:12.304Z,30.95
2022-09-26T06:28:40.112Z,37.40
2022-09-26T06:31:10.654Z,51.65
2022-09-26T06:33:38.166Z,36.50
2022-09-26T06:36:07.650Z,48.03
2022-09-26T06:38:35.606Z,49.90
2022-09-26T06:41:05.332Z,51.58
2022-09-26T06:43:33.940Z,44.00
2022-09-26T06:46:01.530Z,34.90
2022-09-26T06:48:29.181Z,43.47
2022-09-26T06:51:00.401Z,23.02
2022-09-26T06:53:28.485Z,18.95
2022-09-26T06:55:56.125Z,25.80
2022-09-26T06:58:25.362Z,30.77
2022-09-26T07:00:52.950Z,50.83
2022-09-26T07:03:20.515Z,44.47
2022-09-26T07:05:48.001Z,15.23
2022-09-26T07:08:16.883Z,6.18
2022-09-26T07:10:44.360Z,4.57
2022-09-26T07:13:11.869Z,6.30
2022-09-26T07:15:40.715Z,7.88
2022-09-26T07:18:08.268Z,5.38
2022-09-26T07:20:39.938Z,7.22
2022-09-26T07:23:09.274Z,7.13
2022-09-26T07:25:39.367Z,6.95
2022-09-26T07:28:08.083Z,6.57
2022-09-26T07:30:35.639Z,6.93
2022-09-26T07:33:05.396Z,8.95
2022-09-26T07:35:34.433Z,9.25
2022-09-26T07:38:02.402Z,6.20
2022-09-26T07:40:30.043Z,5.65
2022-09-26T07:43:18.734Z,5.32
2022-09-26T07:46:05.159Z,6.47
2022-09-26T07:48:51.881Z,5.88
2022-09-26T07:51:20.668Z,8.25
2022-09-26T07:53:48.141Z,7.45
2022-09-26T07:56:16.410Z,8.20
2022-09-26T07:58:44.438Z,6.13
2022-09-26T08:01:14.567Z,6.57
2022-09-26T08:03:45.068Z,6.05
2022-09-26T08:06:14.603Z,6.07
2022-09-26T08:08:42.261Z,6.00
2022-09-26T08:11:15.918Z,7.63
2022-09-26T08:13:43.925Z,5.63
2022-09-26T08:16:12.298Z,6.47
2022-09-26T08:18:39.831Z,4.97
2022-09-26T08:21:08.904Z,10.23
2022-09-26T08:23:36.857Z,9.90
2022-09-26T08:26:05.076Z,15.82
2022-09-26T08:28:32.554Z,6.95
2022-09-26T08:31:05.258Z,5.47
2022-09-26T08:33:35.327Z,4.32
2022-09-26T08:36:08.308Z,3.60
2022-09-26T08:38:36.362Z,6.90
2022-09-26T08:41:17.296Z,4.72
2022-09-26T08:44:01.097Z,6.03
2022-09-26T08:46:48.871Z,11.98
2022-09-26T08:49:39.633Z,5.28
2022-09-26T08:52:22.121Z,10.70
2022-09-26T08:54:51.268Z,9.38
2022-09-26T08:57:34.258Z,10.18
2022-09-26T09:00:09.911Z,5.75
2022-09-26T09:02:42.577Z,7.07
2022-09-26T09:05:16.203Z,3.72
2022-09-26T09:07:49.822Z,5.65
2022-09-26T09:10:20.286Z,3.95
2022-09-26T09:13:03.421Z,4.45
2022-09-26T09:15:44.692Z,4.90
2022-09-26T09:18:22.642Z,4.05
2022-09-26T09:20:58.493Z,7.63
2022-09-26T09:23:46.556Z,8.18
2022-09-26T09:29:25.534Z,7.57
2022-09-26T09:31:55.544Z,5.97
2022-09-26T09:34:29.842Z,9.38
2022-09-26T09:37:00.193Z,7.03
2022-09-26T09:39:33.433Z,5.28
2022-09-26T09:42:07.624Z,4.97
2022-09-26T09:44:46.727Z,5.72
2022-09-26T09:47:16.508Z,3.22
2022-09-26T09:49:45.135Z,2.00
2022-09-26T09:52:27.256Z,3.63
2022-09-26T09:55:10.691Z,3.67
2022-09-26T09:58:05.911Z,2.63
2022-09-26T10:00:39.991Z,2.83
2022-09-26T10:03:18.371Z,3.08
2022-09-26T10:05:48.058Z,5.03
2022-09-26T10:08:19.319Z,2.65
2022-09-26T10:10:55.552Z,3.47
2022-09-26T10:13:26.087Z,6.68
2022-09-26T10:15:59.860Z,3.38
2022-09-26T10:18:27.879Z,3.40
2022-09-26T10:20:57.635Z,3.42
2022-09-26T10:23:32.724Z,4.90
2022-09-26T10:26:04.135Z,6.95
2022-09-26T10:28:37.509Z,5.25
2022-09-26T10:31:08.250Z,3.03
2022-09-26T10:33:38.815Z,5.35
2022-09-26T10:36:12.730Z,4.05
2022-09-26T10:39:10.728Z,3.78
2022-09-26T10:41:45.039Z,3.40
2022-09-26T10:44:24.211Z,3.63
2022-09-26T10:46:57.786Z,3.55
2022-09-26T10:49:31.960Z,3.45
2022-09-26T10:52:11.009Z,2.58
2022-09-26T10:54:45.623Z,5.22
2022-09-26T10:57:24.123Z,4.57
2022-09-26T10:59:54.217Z,3.45
2022-09-26T11:02:24.832Z,3.35
2022-09-26T11:05:14.419Z,4.13
2022-09-26T11:07:44.805Z,5.47
2022-09-26T11:10:15.278Z,3.83
2022-09-26T11:12:58.819Z,2.20
2022-09-26T11:15:28.560Z,4.32
2022-09-26T11:17:56.693Z,2.83
2022-09-26T11:20:44.639Z,5.22
2022-09-26T11:23:20.833Z,4.88
2022-09-26T11:25:57.963Z,8.05
2022-09-26T11:28:34.176Z,6.30
2022-09-26T11:31:08.892Z,3.42
2022-09-26T11:33:37.299Z,2.97
2022-09-26T11:36:19.788Z,4.57
2022-09-26T11:38:48.554Z,2.72
2022-09-26T11:41:41.958Z,3.20
2022-09-26T11:44:24.135Z,3.00
2022-09-26T11:47:06.807Z,4.88
2022-09-26T11:49:51.519Z,5.80
2022-09-26T11:52:37.553Z,3.15
2022-09-26T11:55:17.626Z,3.90
2022-09-26T11:57:54.200Z,3.05
2022-09-26T12:00:27.822Z,3.67
2022-09-26T12:03:39.405Z,3.10
2022-09-26T12:06:18.822Z,3.42
2022-09-26T12:09:00.384Z,5.10
2022-09-26T12:11:37.275Z,3.65
2022-09-26T12:14:13.919Z,3.58
2022-09-26T12:16:51.782Z,4.88
2022-09-26T12:19:26.176Z,5.03
2022-09-26T12:22:19.598Z,3.05
2022-09-26T12:24:58.343Z,4.78
2022-09-26T12:27:35.969Z,3.70
2022-09-26T12:30:10.107Z,4.43
2022-09-26T12:32:57.979Z,3.28
2022-09-26T12:35:43.195Z,3.20
2022-09-26T12:38:56.635Z,5.00
2022-09-26T12:41:44.601Z,3.03
2022-09-26T12:44:25.669Z,3.33
2022-09-26T12:47:08.269Z,6.40
2022-09-26T12:49:54.359Z,5.03
2022-09-26T12:52:37.331Z,3.78
2022-09-26T12:55:22.372Z,3.17
2022-09-26T12:58:02.336Z,3.28
2022-09-26T13:00:36.207Z,3.58
2022-09-26T13:03:36.939Z,5.13
2022-09-26T13:06:35.877Z,3.10
2022-09-26T13:09:20.870Z,4.07
2022-09-26T13:11:57.032Z,3.05
2022-09-26T13:14:51.711Z,3.20
2022-09-26T13:17:22.164Z,3.53
2022-09-26T13:19:56.861Z,3.35
2022-09-26T13:22:34.407Z,2.67
2022-09-26T13:25:07.346Z,3.47
2022-09-26T13:27:38.943Z,3.78
2022-09-26T13:30:14.931Z,3.88
2022-09-26T13:32:53.111Z,4.50
2022-09-26T13:35:23.400Z,3.33
2022-09-26T13:38:09.154Z,3.42
2022-09-26T13:40:42.359Z,3.88
2022-09-26T13:43:24.405Z,2.70
2022-09-26T13:46:02.068Z,2.75
2022-09-26T13:48:38.436Z,5.63
2022-09-26T13:51:18.260Z,2.65
2022-09-26T13:54:00.082Z,3.60
2022-09-26T13:56:47.479Z,3.13
2022-09-26T13:59:27.491Z,4.40
2022-09-26T14:02:15.700Z,3.38
2022-09-26T14:04:44.236Z,2.90
2022-09-26T14:07:36.967Z,3.50
2022-09-26T14:10:21.199Z,4.43
2022-09-26T14:13:06.538Z,4.40
2022-09-26T14:15:56.837Z,3.13
2022-09-26T14:18:38.896Z,3.20
2022-09-26T14:21:28.364Z,3.85
2022-09-26T14:24:26.970Z,3.30
2022-09-26T14:27:21.495Z,3.20
2022-09-26T14:29:53.280Z,3.08
2022-09-26T14:32:24.222Z,3.53
2022-09-26T14:34:57.238Z,3.00
2022-09-26T14:37:31.717Z,3.25
2022-09-26T14:40:16.032Z,3.42
2022-09-26T14:42:53.891Z,3.15
2022-09-26T14:45:26.143Z,3.75
2022-09-26T14:48:15.667Z,3.65
2022-09-26T14:50:48.506Z,3.95
2022-09-26T14:53:24.688Z,4.60
2022-09-26T14:56:00.059Z,3.70
2022-09-26T14:58:46.009Z,2.80
2022-09-26T15:01:19.158Z,2.97
2022-09-26T15:04:02.860Z,3.33
2022-09-26T15:06:31.562Z,3.60
2022-09-26T15:09:00.152Z,3.92
2022-09-26T15:11:44.299Z,3.00
2022-09-26T15:14:22.408Z,2.65
2022-09-26T15:16:54.642Z,3.85
2022-09-26T15:19:25.987Z,2.72
2022-09-26T15:21:59.080Z,2.90
2022-09-26T15:24:29.245Z,3.05
2022-09-26T15:26:59.315Z,3.67
2022-09-26T15:29:28.417Z,3.22
2022-09-26T15:31:57.572Z,5.22
2022-09-26T15:34:33.151Z,3.25
2022-09-26T15:37:02.137Z,3.00
2022-09-26T15:39:38.060Z,3.28
2022-09-26T15:42:39.108Z,2.75
2022-09-26T15:45:22.395Z,2.42
2022-09-26T15:47:50.073Z,2.65
2022-09-26T15:50:20.796Z,2.25
2022-09-26T15:52:55.090Z,4.50
2022-09-26T15:55:26.006Z,6.20
2022-09-26T15:57:56.798Z,4.47
2022-09-26T16:00:25.637Z,2.92
2022-09-26T16:02:53.686Z,2.80
2022-09-26T16:05:22.383Z,3.85
2022-09-26T16:07:52.850Z,2.75
2022-09-26T16:10:22.702Z,2.65
2022-09-26T16:12:50.199Z,3.03
2022-09-26T16:15:28.668Z,2.85
2022-09-26T16:17:59.455Z,3.45
2022-09-26T16:20:29.260Z,2.90
2022-09-26T16:23:03.326Z,3.20
2022-09-26T16:25:35.314Z,6.75
2022-09-26T16:28:21.923Z,2.70
2022-09-26T16:31:10.315Z,4.05
2022-09-26T16:33:40.801Z,4.43
2022-09-26T16:36:18.489Z,4.20
2022-09-26T16:38:52.358Z,4.82
2022-09-26T16:41:48.970Z,5.43
2022-09-26T16:44:27.639Z,6.00
2022-09-26T16:47:00.127Z,6.88
2022-09-26T16:49:42.078Z,6.03
2022-09-26T16:52:12.281Z,6.70
2022-09-26T16:54:39.815Z,7.47
2022-09-26T16:57:11.958Z,7.60
2022-09-26T16:59:39.411Z,6.53
2022-09-26T17:02:09.704Z,7.95
2022-09-26T17:04:38.998Z,6.70
2022-09-26T17:07:12.589Z,7.70
2022-09-26T17:09:41.907Z,5.72
2022-09-26T17:12:17.775Z,5.25
2022-09-26T17:14:48.308Z,4.63
2022-09-26T17:17:21.595Z,5.47
2022-09-26T17:19:58.243Z,5.55
2022-09-26T17:22:26.788Z,5.18
2022-09-26T17:24:54.936Z,8.15
2022-09-26T17:27:27.010Z,5.78
2022-09-26T17:29:59.499Z,6.00
2022-09-26T17:32:29.954Z,5.63
2022-09-26T17:35:01.107Z,5.75
2022-09-26T17:37:29.001Z,5.70
2022-09-26T17:39:56.991Z,5.57
2022-09-26T17:42:25.089Z,5.32
2022-09-26T17:44:52.523Z,14.20
2022-09-26T17:47:20.424Z,4.90
2022-09-26T17:49:56.212Z,4.63
2022-09-26T17:52:28.901Z,5.75
2022-09-26T17:54:58.535Z,3.70
2022-09-26T17:57:27.854Z,6.47
2022-09-26T17:59:55.378Z,3.88
2022-09-26T18:02:30.365Z,3.30
2022-09-26T18:05:03.128Z,4.05
2022-09-26T18:07:36.365Z,3.53
2022-09-26T18:10:07.271Z,4.53
2022-09-26T18:12:35.736Z,4.75
2022-09-26T18:15:05.240Z,4.90
2022-09-26T18:17:32.749Z,4.63
2022-09-26T18:20:00.204Z,5.60
2022-09-26T18:22:32.435Z,6.00
2022-09-26T18:25:05.814Z,5.13
2022-09-26T18:27:36.655Z,6.47
2022-09-26T18:30:05.253Z,5.30
2022-09-26T18:32:37.445Z,6.18
2022-09-26T18:35:05.301Z,5.90
2022-09-26T18:37:32.807Z,5.82
2022-09-26T18:40:04.425Z,6.53
2022-09-26T18:42:32.942Z,5.53
2022-09-26T18:45:03.478Z,4.72
2022-09-26T18:47:42.405Z,4.15
2022-09-26T18:50:19.473Z,5.00
2022-09-26T18:52:47.064Z,5.57
2022-09-26T18:55:37.715Z,4.70
2022-09-26T18:58:23.037Z,4.32
2022-09-26T19:00:54.335Z,5.32
2022-09-26T19:03:22.525Z,4.55
2022-09-26T19:05:50.479Z,5.28
2022-09-26T19:08:34.003Z,4.13
2022-09-26T19:11:07.843Z,3.63
2022-09-26T19:13:35.349Z,3.17
2022-09-26T19:16:02.994Z,4.63
2022-09-26T19:18:30.828Z,4.60
2022-09-26T19:20:58.437Z,4.32
2022-09-26T19:23:30.572Z,5.40
2022-09-26T19:25:58.067Z,3.80
2022-09-26T19:28:30.985Z,3.65
2022-09-26T19:30:58.545Z,3.80
2022-09-26T19:33:26.165Z,3.42
2022-09-26T19:35:53.838Z,5.60
2022-09-26T19:38:23.201Z,5.00
2022-09-26T19:40:53.232Z,3.38
2022-09-26T19:43:21.842Z,3.05
2022-09-26T19:45:53.122Z,3.60
2022-09-26T19:48:24.110Z,3.30
2022-09-26T19:50:52.436Z,3.85
2022-09-26T19:53:22.241Z,3.90
2022-09-26T19:55:50.347Z,4.75
2022-09-26T19:58:20.266Z,3.97
2022-09-26T20:00:51.391Z,5.55
2022-09-26T20:03:20.507Z,4.03
2022-09-26T20:05:49.299Z,4.10
2022-09-26T20:08:19.654Z,4.20
2022-09-26T20:10:48.166Z,3.72
2022-09-26T20:13:16.103Z,3.15
2022-09-26T20:15:44.204Z,3.58
2022-09-26T20:18:18.415Z,3.00
2022-09-26T20:20:48.593Z,3.28
2022-09-26T20:23:19.532Z,3.03
2022-09-26T20:25:47.137Z,3.05
2022-09-26T20:28:15.532Z,5.40
2022-09-26T20:30:51.473Z,12.77
2022-09-26T20:33:22.357Z,10.25
2022-09-26T20:35:53.532Z,35.42
2022-09-26T20:38:26.768Z,33.78
2022-09-26T20:41:01.453Z,44.83
2022-09-26T20:43:32.759Z,36.47
2022-09-26T20:46:02.766Z,44.88
2022-09-26T20:48:34.386Z,33.63
2022-09-26T20:51:02.179Z,18.45
2022-09-26T20:53:29.635Z,42.03
2022-09-26T20:55:57.230Z,52.83
2022-09-26T20:58:24.741Z,48.10
2022-09-26T21:00:53.550Z,57.00
2022-09-26T21:03:25.113Z,37.60
2022-09-26T21:05:53.961Z,49.65
2022-09-26T21:08:26.792Z,38.28
2022-09-26T21:10:55.855Z,31.15
2022-09-26T21:13:23.347Z,36.25
2022-09-26T21:15:52.007Z,39.22
2022-09-26T21:18:25.033Z,35.45
2022-09-26T21:20:55.135Z,36.17
2022-09-26T21:23:24.036Z,48.36
2022-09-26T21:25:51.488Z,53.20
2022-09-26T21:28:26.320Z,51.08
2022-09-26T21:30:55.545Z,52.80
2022-09-26T21:33:23.600Z,26.50
2022-09-26T21:35:51.777Z,40.63
2022-09-26T21:38:21.449Z,17.63
2022-09-26T21:40:53.199Z,37.25
2022-09-26T21:43:23.927Z,24.60
2022-09-26T21:45:51.516Z,19.60
2022-09-26T21:48:19.307Z,8.55
2022-09-26T21:50:55.328Z,67.80
2022-09-26T21:53:30.890Z,7.85
2022-09-26T21:56:07.500Z,14.07
2022-09-26T21:58:38.220Z,19.48
2022-09-26T22:01:06.080Z,30.50
2022-09-26T22:03:34.536Z,25.17
2022-09-26T22:06:07.216Z,12.25
2022-09-26T22:08:37.000Z,28.25
2022-09-26T22:11:05.377Z,12.18
2022-09-26T22:13:33.055Z,16.75
2022-09-26T22:16:05.943Z,12.40
2022-09-26T22:18:33.965Z,24.75
2022-09-26T22:21:03.800Z,7.25
2022-09-26T22:23:31.888Z,11.57
2022-09-26T22:26:00.938Z,13.80
2022-09-26T22:28:28.985Z,20.60
2022-09-26T22:30:56.699Z,21.70
2022-09-26T22:33:24.473Z,16.13
2022-09-26T22:35:52.051Z,19.75
2022-09-26T22:38:19.658Z,28.33
2022-09-26T22:40:55.346Z,26.73
2022-09-26T22:43:24.915Z,30.27
2022-09-26T22:45:52.938Z,35.88
2022-09-26T22:48:20.487Z,13.55
2022-09-26T22:50:47.959Z,17.10
2022-09-26T22:53:15.455Z,12.55
2022-09-26T22:55:42.919Z,17.67
2022-09-26T22:58:12.559Z,17.33
2022-09-26T23:00:41.744Z,18.38
2022-09-26T23:03:09.250Z,18.17
2022-09-26T23:05:36.739Z,35.13
2022-09-26T23:08:05.446Z,33.83
2022-09-26T23:10:33.195Z,46.75
2022-09-26T23:13:00.718Z,10.13
2022-09-26T23:15:28.181Z,11.57
2022-09-26T23:17:57.013Z,9.40
2022-09-26T23:20:24.531Z,20.60
2022-09-26T23:22:52.014Z,15.82
2022-09-26T23:25:19.512Z,8.90
2022-09-26T23:27:47.006Z,11.48
2022-09-26T23:30:14.567Z,14.65
2022-09-26T23:32:42.045Z,53.28
2022-09-26T23:35:10.985Z,41.22
2022-09-26T23:37:38.705Z,36.20
2022-09-26T23:40:07.243Z,63.00
2022-09-26T23:42:34.705Z,55.47
2022-09-26T23:45:02.172Z,39.45
2022-09-26T23:47:29.637Z,29.13
2022-09-26T23:49:57.156Z,26.88
2022-09-26T23:52:25.965Z,13.32
2022-09-26T23:54:53.543Z,19.13
2022-09-26T23:57:20.998Z,27.95
2022-09-26T23:59:48.448Z,7.70
